Time;durP1;ratioP1;P1;durP2;ratioP2;P2;SDS_P1;SDS_P2;PMS_P1;PMS_P2;Temp;Humidity;BMP_temperature;BMP_pressure;BME280_temperature;BME280_humidity;BME280_pressure;Samples;Min_cycle;Max_cycle;Signal;HPM_P1;HPM_P2
2021/01/29 00:01:51;;;;;;;6.40;3.47;;;-1.00;99.90;;;;;;5072172;28;20191;-70
2021/01/29 00:04:16;;;;;;;6.30;3.33;;;-1.00;99.90;;;;;;5072200;28;20162;-70
2021/01/29 00:06:42;;;;;;;3.23;2.73;;;-0.90;99.90;;;;;;5071591;28;20443;-70
2021/01/29 00:09:07;;;;;;;5.00;2.33;;;-0.90;99.90;;;;;;5072091;28;20198;-71
2021/01/29 00:11:36;;;;;;;4.10;2.40;;;-0.90;99.90;;;;;;5072043;28;20220;-70
2021/01/29 00:14:01;;;;;;;2.63;2.40;;;-0.90;99.90;;;;;;5072148;28;20518;-70
2021/01/29 00:16:27;;;;;;;4.30;3.47;;;-0.90;99.90;;;;;;5071961;28;20408;-70
2021/01/29 00:18:52;;;;;;;3.93;2.80;;;-0.90;99.90;;;;;;5071667;28;20547;-68
2021/01/29 00:21:18;;;;;;;2.50;2.30;;;-0.90;99.90;;;;;;5071835;28;20190;-68
2021/01/29 00:23:43;;;;;;;4.43;2.50;;;-0.90;99.90;;;;;;5070973;28;20253;-69
2021/01/29 00:26:08;;;;;;;2.37;2.00;;;-0.90;99.90;;;;;;5071786;28;20169;-69
2021/01/29 00:28:34;;;;;;;4.70;2.53;;;-0.90;99.90;;;;;;5071304;28;20238;-69
2021/01/29 00:30:59;;;;;;;5.83;3.27;;;-0.90;99.90;;;;;;5071830;28;20190;-69
2021/01/29 00:33:26;;;;;;;4.23;2.80;;;-0.90;99.90;;;;;;5071869;28;20528;-69
2021/01/29 00:35:55;;;;;;;9.60;2.73;;;-0.90;99.90;;;;;;5071714;28;20685;-69
2021/01/29 00:38:21;;;;;;;10.83;3.93;;;-0.90;99.90;;;;;;5071354;28;20409;-69
2021/01/29 00:40:47;;;;;;;4.63;3.00;;;-0.90;99.90;;;;;;5071691;28;20436;-69
2021/01/29 00:43:12;;;;;;;8.03;2.60;;;-0.90;99.90;;;;;;5071761;28;20916;-70
2021/01/29 00:45:39;;;;;;;3.40;2.60;;;-0.90;99.90;;;;;;5071596;28;20226;-70
2021/01/29 00:48:07;;;;;;;6.20;3.27;;;-0.80;99.90;;;;;;5071249;28;20170;-70
2021/01/29 00:50:32;;;;;;;3.13;2.63;;;-0.80;99.90;;;;;;5071512;28;20467;-70
2021/01/29 00:52:59;;;;;;;6.17;2.20;;;-0.80;99.90;;;;;;5071662;28;20397;-69
2021/01/29 00:55:25;;;;;;;6.57;3.53;;;-0.80;99.90;;;;;;5071590;28;20408;-69
2021/01/29 00:57:51;;;;;;;3.33;3.03;;;-0.80;99.90;;;;;;5071391;28;20431;-69
2021/01/29 01:00:18;;;;;;;7.63;3.43;;;-0.80;99.90;;;;;;5071155;28;20405;-70
2021/01/29 01:02:44;;;;;;;6.50;3.83;;;-0.80;99.90;;;;;;5071437;28;20166;-70
2021/01/29 01:05:11;;;;;;;3.00;2.47;;;-0.80;99.90;;;;;;5071415;28;20409;-70
2021/01/29 01:07:36;;;;;;;5.80;2.60;;;-0.80;99.90;;;;;;5071038;28;20181;-70
2021/01/29 01:10:04;;;;;;;2.90;2.43;;;-0.80;99.90;;;;;;5071062;28;20459;-70
2021/01/29 01:12:29;;;;;;;5.27;2.43;;;-0.80;99.90;;;;;;5071308;28;20273;-70
2021/01/29 01:14:54;;;;;;;5.60;2.57;;;-0.80;99.90;;;;;;5071508;28;20512;-70
2021/01/29 01:17:20;;;;;;;4.00;2.20;;;-0.80;99.90;;;;;;5071349;28;20172;-71
2021/01/29 01:19:46;;;;;;;3.03;2.43;;;-0.80;99.90;;;;;;5070895;28;20174;-71
2021/01/29 01:22:12;;;;;;;2.23;2.00;;;-0.80;99.90;;;;;;5071334;28;20470;-71
2021/01/29 01:24:40;;;;;;;4.77;2.17;;;-0.70;99.90;;;;;;5071439;28;20410;-71
2021/01/29 01:27:24;;;;;;;5.83;2.10;;;-0.80;99.90;;;;;;5071332;28;20166;-71
2021/01/29 01:29:49;;;;;;;5.00;2.50;;;-0.80;99.90;;;;;;5070851;28;20446;-70
2021/01/29 01:32:15;;;;;;;2.43;2.23;;;-0.80;99.90;;;;;;5071228;28;20420;-70
2021/01/29 01:34:40;;;;;;;2.27;2.07;;;-0.80;99.90;;;;;;5072127;28;20170;-70
2021/01/29 01:37:06;;;;;;;3.43;2.57;;;-0.80;99.90;;;;;;5074787;28;20603;-70
2021/01/29 01:39:31;;;;;;;2.50;2.30;;;-0.80;99.90;;;;;;5074915;28;20169;-71
2021/01/29 01:41:58;;;;;;;6.60;2.60;;;-0.70;99.90;;;;;;5074690;28;20273;-70
2021/01/29 01:44:26;;;;;;;3.07;2.77;;;-0.80;99.90;;;;;;5075162;28;20177;-70
2021/01/29 01:46:54;;;;;;;3.20;2.33;;;-0.80;99.90;;;;;;5074715;28;20409;-70
2021/01/29 01:49:20;;;;;;;2.50;2.30;;;-0.80;99.90;;;;;;5074698;28;20551;-70
2021/01/29 01:51:55;;;;;;;6.83;2.13;;;-0.80;99.90;;;;;;5074208;28;20456;-70
2021/01/29 01:54:38;;;;;;;2.87;2.67;;;-0.80;99.90;;;;;;5074700;28;20397;-70
2021/01/29 01:57:05;;;;;;;3.90;2.50;;;-0.80;99.90;;;;;;5074469;28;20435;-70
2021/01/29 01:59:39;;;;;;;2.57;2.37;;;-0.80;99.90;;;;;;5074495;28;20908;-70
2021/01/29 02:02:06;;;;;;;2.73;2.50;;;-0.80;99.90;;;;;;5074030;28;20436;-70
2021/01/29 02:04:36;;;;;;;2.70;2.27;;;-0.80;99.90;;;;;;5074332;28;20408;-69
2021/01/29 02:07:16;;;;;;;3.13;2.70;;;-0.80;99.90;;;;;;5074110;28;20428;-70
2021/01/29 02:09:43;;;;;;;3.77;3.10;;;-0.80;99.90;;;;;;5074083;28;20435;-69
2021/01/29 02:12:10;;;;;;;2.20;2.00;;;-0.80;99.90;;;;;;5073861;28;20455;-69
2021/01/29 02:14:35;;;;;;;2.60;2.40;;;-0.80;99.90;;;;;;5074254;28;20530;-69
2021/01/29 02:17:03;;;;;;;7.70;2.73;;;-0.80;99.90;;;;;;5074258;28;20891;-69
2021/01/29 02:20:08;;;;;;;2.77;2.37;;;-0.70;99.90;;;;;;5074373;28;20165;-69
2021/01/29 02:23:04;;;;;;;4.50;2.60;;;-0.70;99.90;;;;;;5073695;28;20427;-69
2021/01/29 02:25:57;;;;;;;6.67;2.50;;;-0.70;99.90;;;;;;5074163;28;20455;-69
2021/01/29 02:29:00;;;;;;;2.50;2.30;;;-0.70;99.90;;;;;;5073860;28;20482;-69
2021/01/29 02:31:47;;;;;;;3.63;2.37;;;-0.70;99.90;;;;;;5073674;28;20440;-69
2021/01/29 02:34:27;;;;;;;4.73;2.43;;;-0.70;99.90;;;;;;5074069;28;20403;-70
2021/01/29 02:37:10;;;;;;;5.73;2.50;;;-0.70;99.90;;;;;;5073735;28;21014;-70
2021/01/29 02:39:54;;;;;;;2.20;2.00;;;-0.70;99.90;;;;;;5073807;28;20734;-71
2021/01/29 02:42:36;;;;;;;4.27;2.20;;;-0.70;99.90;;;;;;5073275;28;20511;-70
2021/01/29 02:45:21;;;;;;;3.13;2.40;;;-0.70;99.90;;;;;;5073712;28;20401;-70
2021/01/29 02:48:10;;;;;;;3.33;2.20;;;-0.70;99.90;;;;;;5072645;28;20457;-70
2021/01/29 02:50:58;;;;;;;4.50;2.53;;;-0.70;99.90;;;;;;5073543;28;20510;-70
2021/01/29 02:53:36;;;;;;;4.90;2.57;;;-0.60;99.90;;;;;;5073299;28;20492;-70
2021/01/29 02:56:27;;;;;;;2.60;2.10;;;-0.60;99.90;;;;;;5072761;28;20638;-70
2021/01/29 02:58:56;;;;;;;2.30;1.80;;;-0.70;99.90;;;;;;5072298;28;20405;-71
2021/01/29 03:01:39;;;;;;;2.20;2.00;;;-0.70;99.90;;;;;;5075784;28;20451;-70
2021/01/29 03:04:16;;;;;;;3.03;2.37;;;-0.60;99.90;;;;;;5076081;28;20429;-70
2021/01/29 03:06:53;;;;;;;2.20;2.00;;;-0.60;99.90;;;;;;5075928;28;20458;-71
2021/01/29 03:09:38;;;;;;;3.53;2.30;;;-0.60;99.90;;;;;;5073226;28;20478;-70
2021/01/29 03:12:16;;;;;;;3.13;1.90;;;-0.60;99.90;;;;;;5073062;28;21023;-70
2021/01/29 03:15:01;;;;;;;2.30;1.97;;;-0.70;99.90;;;;;;5073066;28;20495;-70
2021/01/29 03:17:36;;;;;;;6.53;2.33;;;-0.60;99.90;;;;;;5073086;28;20397;-71
2021/01/29 03:20:11;;;;;;;4.70;2.60;;;-0.60;99.90;;;;;;5072912;28;20408;-69
2021/01/29 03:22:48;;;;;;;2.60;2.17;;;-0.60;99.90;;;;;;5072548;28;20412;-70
2021/01/29 03:25:19;;;;;;;8.57;3.27;;;-0.60;99.90;;;;;;5072902;28;20399;-70
2021/01/29 03:27:51;;;;;;;8.43;2.57;;;-0.60;99.90;;;;;;5072879;28;20411;-71
2021/01/29 03:30:22;;;;;;;3.30;3.00;;;-0.60;99.90;;;;;;5071308;28;20444;-71
2021/01/29 03:32:51;;;;;;;3.20;2.70;;;-0.60;99.90;;;;;;5072601;28;20913;-71
2021/01/29 03:35:25;;;;;;;4.63;2.03;;;-0.60;99.90;;;;;;5072474;28;20423;-71
2021/01/29 03:38:06;;;;;;;3.97;2.03;;;-0.60;99.90;;;;;;5072758;28;20900;-71
2021/01/29 03:40:31;;;;;;;4.73;2.20;;;-0.60;99.90;;;;;;5072432;28;20431;-69
2021/01/29 03:43:06;;;;;;;2.30;2.10;;;-0.60;99.90;;;;;;5072428;28;20937;-69
2021/01/29 03:45:58;;;;;;;4.30;2.30;;;-0.60;99.90;;;;;;5072375;28;20168;-69
2021/01/29 03:48:31;;;;;;;5.10;2.43;;;-0.70;99.90;;;;;;5072517;28;20400;-70
2021/01/29 03:51:12;;;;;;;3.90;3.10;;;-0.70;99.90;;;;;;5072128;28;20795;-70
2021/01/29 03:53:53;;;;;;;3.20;2.30;;;-0.70;99.90;;;;;;5072077;28;20408;-70
2021/01/29 03:56:32;;;;;;;2.40;2.20;;;-0.60;99.90;;;;;;5072170;28;20885;-70
2021/01/29 03:59:21;;;;;;;4.10;2.27;;;-0.70;99.90;;;;;;5072101;28;20415;-70
2021/01/29 04:02:00;;;;;;;3.20;2.40;;;-0.70;99.90;;;;;;5072080;28;20880;-70
2021/01/29 04:04:33;;;;;;;3.47;2.37;;;-0.70;99.90;;;;;;5071748;28;20924;-70
2021/01/29 04:07:11;;;;;;;2.23;2.03;;;-0.80;99.90;;;;;;5071879;28;20515;-70
2021/01/29 04:10:01;;;;;;;4.53;2.53;;;-0.70;99.90;;;;;;5070677;28;20531;-71
2021/01/29 04:12:40;;;;;;;3.93;2.77;;;-0.70;99.90;;;;;;5071843;28;20463;-71
2021/01/29 04:15:22;;;;;;;2.63;2.40;;;-0.80;99.90;;;;;;5071520;28;20825;-71
2021/01/29 04:17:53;;;;;;;3.50;3.20;;;-0.70;99.90;;;;;;5071846;28;20401;-71
2021/01/29 04:20:35;;;;;;;3.73;2.40;;;-0.80;99.90;;;;;;5071518;28;20412;-71
2021/01/29 04:23:06;;;;;;;2.40;2.20;;;-0.80;99.90;;;;;;5071778;28;20873;-71
2021/01/29 04:25:36;;;;;;;3.53;2.67;;;-0.80;99.90;;;;;;5071597;28;20953;-71
2021/01/29 04:28:06;;;;;;;4.33;2.60;;;-0.80;99.90;;;;;;5071587;28;20457;-71
2021/01/29 04:30:34;;;;;;;2.17;2.00;;;-0.80;99.90;;;;;;5071544;28;20496;-70
2021/01/29 04:33:13;;;;;;;4.87;2.20;;;-0.80;99.90;;;;;;5071521;28;20520;-71
2021/01/29 04:35:40;;;;;;;7.27;1.90;;;-0.90;99.90;;;;;;5071369;28;20428;-71
2021/01/29 04:38:19;;;;;;;4.57;2.50;;;-0.90;99.90;;;;;;5071557;28;20401;-71
2021/01/29 04:41:28;;;;;;;3.07;2.87;;;-0.90;99.90;;;;;;5071699;28;20455;-71
2021/01/29 04:44:24;;;;;;;2.63;2.43;;;-0.90;99.90;;;;;;5066544;28;20466;-71
2021/01/29 04:46:57;;;;;;;2.60;2.23;;;-0.90;99.90;;;;;;5071091;28;20769;-71
2021/01/29 04:49:53;;;;;;;5.00;2.90;;;-1.00;99.90;;;;;;5071603;28;20475;-71
2021/01/29 04:52:49;;;;;;;3.57;3.27;;;-1.00;99.90;;;;;;5071583;28;20422;-71
2021/01/29 04:55:17;;;;;;;3.20;2.17;;;-1.00;99.90;;;;;;5071617;28;20898;-71
2021/01/29 04:58:19;;;;;;;9.70;3.00;;;-1.00;99.90;;;;;;5071187;28;20444;-71
2021/01/29 05:01:34;;;;;;;3.07;2.33;;;-1.00;99.90;;;;;;5070099;28;20419;-71
2021/01/29 05:04:35;;;;;;;2.53;2.33;;;-1.00;99.90;;;;;;5071325;28;20392;-69
2021/01/29 05:07:18;;;;;;;4.23;2.27;;;-1.00;99.90;;;;;;5070959;28;20839;-69
2021/01/29 05:10:26;;;;;;;2.63;2.10;;;-1.00;99.90;;;;;;5072459;28;20444;-70
2021/01/29 05:13:13;;;;;;;2.67;2.27;;;-1.00;99.90;;;;;;5075388;28;20445;-69
2021/01/29 05:16:09;;;;;;;3.03;2.33;;;-1.10;99.90;;;;;;5075572;28;20393;-70
2021/01/29 05:19:05;;;;;;;2.83;1.90;;;-1.00;99.90;;;;;;5075248;28;20766;-70
2021/01/29 05:21:40;;;;;;;3.83;2.40;;;-1.10;99.90;;;;;;5055962;28;20466;-70
2021/01/29 05:24:23;;;;;;;2.50;1.70;;;-1.10;99.90;;;;;;5055318;28;20401;-71
2021/01/29 05:27:16;;;;;;;2.70;2.10;;;-1.10;99.90;;;;;;5054932;28;20408;-71
2021/01/29 05:30:11;;;;;;;2.90;2.50;;;-1.20;99.90;;;;;;5055291;28;20528;-68
2021/01/29 05:33:16;;;;;;;2.97;2.77;;;-1.20;99.90;;;;;;5055160;28;20393;-69
2021/01/29 05:35:53;;;;;;;5.90;2.40;;;-1.20;99.90;;;;;;5035454;28;20948;-70
2021/01/29 05:38:59;;;;;;;110.33;59.60;;;-1.20;99.90;;;;;;5056040;28;20401;-68
2021/01/29 05:42:01;;;;;;;6.95;4.40;;;-0.60;99.90;;;;;;5055272;28;20428;-70
2021/01/29 05:44:48;;;;;;;2.53;2.33;;;-1.00;99.90;;;;;;5055088;28;20171;-70
2021/01/29 05:47:40;;;;;;;2.40;2.10;;;-1.20;99.90;;;;;;5054262;28;20419;-70
2021/01/29 05:50:21;;;;;;;3.10;2.60;;;-1.20;99.90;;;;;;5054666;28;20510;-70
2021/01/29 05:53:16;;;;;;;4.57;4.20;;;-1.20;99.90;;;;;;5054845;28;20419;-70
2021/01/29 05:55:45;;;;;;;5.87;2.63;;;-1.20;99.90;;;;;;5057838;28;20491;-70
2021/01/29 05:58:48;;;;;;;7.43;3.33;;;-1.30;99.90;;;;;;5073892;28;20470;-71
2021/01/29 06:01:34;;;;;;;5.93;2.70;;;-1.30;99.90;;;;;;5074437;28;20435;-68
2021/01/29 06:04:18;;;;;;;5.13;2.83;;;-1.30;99.90;;;;;;5074435;28;20404;-69
2021/01/29 06:06:55;;;;;;;2.60;2.40;;;-1.30;99.90;;;;;;5074436;28;20474;-69
2021/01/29 06:10:01;;;;;;;2.90;2.67;;;-1.30;99.90;;;;;;5074080;28;20999;-69
2021/01/29 06:13:10;;;;;;;5.40;2.87;;;-1.40;99.90;;;;;;5072950;28;20436;-70
2021/01/29 06:15:49;;;;;;;5.37;2.50;;;-1.40;99.90;;;;;;5074582;28;20401;-70
2021/01/29 06:18:58;;;;;;;2.83;2.60;;;-1.40;99.90;;;;;;5073731;28;20400;-70
2021/01/29 06:21:42;;;;;;;5.30;3.00;;;-1.30;99.90;;;;;;5073004;28;20423;-70
2021/01/29 06:24:50;;;;;;;3.27;2.83;;;-1.30;99.90;;;;;;5074163;28;20396;-71
2021/01/29 06:27:57;;;;;;;5.00;4.53;;;-1.30;99.90;;;;;;5074536;28;20814;-70
2021/01/29 06:30:49;;;;;;;3.20;2.50;;;-1.30;99.90;;;;;;5073910;28;20490;-70
2021/01/29 06:33:44;;;;;;;3.50;3.00;;;-1.30;99.90;;;;;;5075345;28;20896;-70
2021/01/29 06:36:31;;;;;;;3.07;2.73;;;-1.20;99.90;;;;;;5072802;28;20397;-71
2021/01/29 06:39:23;;;;;;;2.57;2.37;;;-1.20;99.90;;;;;;5073898;28;20400;-71
2021/01/29 06:42:04;;;;;;;2.80;2.47;;;-1.20;99.90;;;;;;5073821;28;20431;-70
2021/01/29 06:44:47;;;;;;;3.70;2.70;;;-1.10;99.90;;;;;;5073809;28;20487;-70
2021/01/29 06:47:35;;;;;;;2.90;2.20;;;-1.10;99.90;;;;;;5073428;28;20767;-70
2021/01/29 06:50:18;;;;;;;3.40;2.37;;;-1.10;99.90;;;;;;5073411;28;20440;-70
2021/01/29 06:53:05;;;;;;;5.23;2.80;;;-1.10;99.90;;;;;;5072327;28;20423;-70
2021/01/29 06:55:57;;;;;;;5.77;2.40;;;-1.10;99.90;;;;;;5073426;28;20784;-70
2021/01/29 06:58:48;;;;;;;6.50;3.03;;;-1.00;99.90;;;;;;5073220;28;20495;-70
2021/01/29 07:01:39;;;;;;;6.70;2.93;;;-1.00;99.90;;;;;;5072821;28;20429;-70
2021/01/29 07:04:38;;;;;;;5.07;2.60;;;-1.00;99.90;;;;;;5073050;28;20506;-70
2021/01/29 07:07:33;;;;;;;4.77;2.73;;;-1.00;99.90;;;;;;5072915;28;20443;-70
2021/01/29 07:10:11;;;;;;;3.57;2.33;;;-0.90;99.90;;;;;;5072912;28;20597;-70
2021/01/29 07:13:14;;;;;;;6.00;3.10;;;-1.00;99.90;;;;;;5073223;28;20959;-70
2021/01/29 07:15:51;;;;;;;9.50;2.90;;;-1.00;99.90;;;;;;5072971;28;20523;-70
2021/01/29 07:18:23;;;;;;;4.57;3.60;;;-1.00;99.90;;;;;;5073005;28;20396;-70
2021/01/29 07:21:31;;;;;;;6.03;3.03;;;-0.90;99.90;;;;;;5072823;28;20482;-71
2021/01/29 07:24:24;;;;;;;6.63;3.20;;;-0.80;99.90;;;;;;5073847;28;20453;-70
2021/01/29 07:27:09;;;;;;;6.77;2.70;;;-0.90;99.90;;;;;;5073071;28;20412;-71
2021/01/29 07:29:52;;;;;;;5.43;2.63;;;-0.90;99.90;;;;;;5072732;28;20440;-70
2021/01/29 07:32:49;;;;;;;4.20;2.97;;;-0.80;99.90;;;;;;5072060;28;20475;-70
2021/01/29 07:35:38;;;;;;;5.13;3.10;;;-0.80;99.90;;;;;;5072759;28;20956;-70
2021/01/29 07:38:22;;;;;;;3.00;2.60;;;-0.80;99.90;;;;;;5072471;28;20415;-71
2021/01/29 07:41:01;;;;;;;3.53;2.70;;;-0.80;99.90;;;;;;5072486;28;20450;-70
2021/01/29 07:43:58;;;;;;;3.90;2.70;;;-0.70;99.90;;;;;;5072700;28;20404;-70
2021/01/29 07:46:47;;;;;;;5.57;2.63;;;-0.70;99.90;;;;;;5072417;28;20432;-71
2021/01/29 07:49:43;;;;;;;4.93;3.03;;;-0.70;99.90;;;;;;5072501;28;20940;-71
2021/01/29 07:52:30;;;;;;;6.63;3.27;;;-0.80;99.90;;;;;;5071599;28;20936;-71
2021/01/29 07:55:26;;;;;;;6.67;3.70;;;-0.80;99.90;;;;;;5072433;28;20420;-70
2021/01/29 07:58:10;;;;;;;3.20;2.90;;;-0.70;99.90;;;;;;5052409;28;20477;-70
2021/01/29 08:01:04;;;;;;;5.63;2.90;;;-0.70;99.90;;;;;;5052479;28;20424;-70
2021/01/29 08:04:04;;;;;;;16.60;9.93;;;-0.60;99.90;;;;;;5052563;28;20420;-70
2021/01/29 08:06:41;;;;;;;3.80;3.00;;;-0.50;99.90;;;;;;5052353;28;20504;-71
2021/01/29 08:09:17;;;;;;;4.90;3.30;;;-0.60;99.90;;;;;;5052739;28;20747;-71
2021/01/29 08:11:48;;;;;;;2.70;2.50;;;-0.70;99.90;;;;;;5052433;28;20472;-74
2021/01/29 08:14:47;;;;;;;8.40;3.80;;;-0.80;99.90;;;;;;5052384;28;20402;-71
2021/01/29 08:17:18;;;;;;;2.80;2.37;;;-0.70;99.90;;;;;;5052767;28;21103;-69
2021/01/29 08:20:13;;;;;;;6.30;2.70;;;-0.70;99.90;;;;;;5052131;28;20405;-69
2021/01/29 08:22:44;;;;;;;3.70;2.60;;;-0.70;99.90;;;;;;5050356;28;20463;-69
2021/01/29 08:25:41;;;;;;;9.77;4.23;;;-0.70;99.90;;;;;;5051858;28;20497;-69
2021/01/29 08:28:36;;;;;;;2.43;2.23;;;-0.70;99.90;;;;;;5050770;28;20406;-69
2021/01/29 08:31:45;;;;;;;3.10;2.83;;;-0.70;99.90;;;;;;5051632;28;20560;-70
2021/01/29 08:34:38;;;;;;;20.80;3.27;;;-0.50;99.90;;;;;;5044885;28;20420;-70
2021/01/29 08:37:23;;;;;;;6.30;2.90;;;-0.40;99.90;;;;;;5069979;28;20936;-70
2021/01/29 08:40:16;;;;;;;5.77;2.33;;;-0.40;99.90;;;;;;5071266;28;20412;-70
2021/01/29 08:43:19;;;;;;;5.50;3.23;;;-0.50;99.90;;;;;;5066896;28;20419;-70
2021/01/29 08:46:00;;;;;;;4.30;2.23;;;-0.50;99.90;;;;;;5071379;28;20408;-69
2021/01/29 08:49:02;;;;;;;8.33;3.20;;;-0.50;99.90;;;;;;5072173;28;20793;-76
2021/01/29 08:51:29;;;;;;;5.73;2.93;;;-0.30;99.90;;;;;;5071337;28;20424;-71
2021/01/29 08:54:21;;;;;;;5.50;2.60;;;-0.20;99.90;;;;;;5071771;28;20404;-71
2021/01/29 08:57:18;;;;;;;5.70;2.80;;;-0.20;99.90;;;;;;5071786;28;20774;-71
2021/01/29 08:59:44;;;;;;;8.30;2.87;;;-0.10;99.90;;;;;;5071336;28;20757;-71
2021/01/29 09:02:27;;;;;;;5.40;3.03;;;-0.10;99.90;;;;;;5071445;28;20432;-71
2021/01/29 09:05:01;;;;;;;3.77;2.57;;;-0.10;99.90;;;;;;5071807;28;20159;-71
2021/01/29 09:07:33;;;;;;;2.93;2.50;;;-0.10;99.90;;;;;;5070128;28;20581;-71
2021/01/29 09:10:20;;;;;;;3.90;3.20;;;-0.10;99.90;;;;;;5071134;28;20509;-71
2021/01/29 09:12:54;;;;;;;8.73;3.37;;;0.10;99.90;;;;;;5071510;28;20901;-71
2021/01/29 09:15:43;;;;;;;4.57;2.77;;;0.00;99.90;;;;;;5071482;28;20910;-71
2021/01/29 09:18:43;;;;;;;4.60;2.97;;;0.20;99.90;;;;;;5071399;28;20803;-70
2021/01/29 09:21:18;;;;;;;5.20;2.90;;;0.30;99.90;;;;;;5071258;28;20547;-71
2021/01/29 09:24:01;;;;;;;3.67;2.60;;;0.20;99.90;;;;;;5070361;28;20412;-70
2021/01/29 09:26:39;;;;;;;5.57;3.70;;;0.10;99.90;;;;;;5071388;28;20461;-71
2021/01/29 09:29:25;;;;;;;6.40;3.00;;;0.00;99.90;;;;;;5071385;28;20821;-71
2021/01/29 09:31:59;;;;;;;6.80;3.50;;;0.00;99.90;;;;;;5070993;28;20431;-71
2021/01/29 09:34:34;;;;;;;5.73;3.43;;;0.10;99.90;;;;;;5071621;28;20424;-71
2021/01/29 09:37:06;;;;;;;5.10;3.63;;;0.00;99.90;;;;;;5071318;28;20432;-70
2021/01/29 09:39:54;;;;;;;3.63;3.03;;;-0.10;99.90;;;;;;5070665;28;20401;-70
2021/01/29 09:42:46;;;;;;;5.30;3.23;;;0.00;99.90;;;;;;5069660;28;20436;-70
2021/01/29 09:45:18;;;;;;;2.97;2.70;;;0.20;99.90;;;;;;5071294;28;21846;-70
2021/01/29 09:47:47;;;;;;;6.13;3.33;;;0.10;99.90;;;;;;5071182;28;20408;-71
2021/01/29 09:50:21;;;;;;;3.87;3.00;;;0.10;99.90;;;;;;5071392;28;20467;-70
2021/01/29 09:53:21;;;;;;;6.23;3.13;;;0.30;99.90;;;;;;5071846;28;20412;-70
2021/01/29 09:55:57;;;;;;;3.83;3.20;;;0.20;99.90;;;;;;5065141;28;20423;-71
2021/01/29 09:58:31;;;;;;;2.87;2.20;;;0.20;99.90;;;;;;5076000;28;20407;-70
2021/01/29 10:01:15;;;;;;;12.47;3.37;;;0.20;99.90;;;;;;5078732;28;20431;-71
2021/01/29 10:04:08;;;;;;;4.23;3.07;;;0.00;99.90;;;;;;5075360;28;20405;-70
2021/01/29 10:07:12;;;;;;;6.30;3.33;;;0.20;99.90;;;;;;5074449;28;20439;-71
2021/01/29 10:09:47;;;;;;;7.57;4.90;;;0.30;99.90;;;;;;5052384;28;20480;-71
2021/01/29 10:12:22;;;;;;;6.43;2.90;;;0.50;99.90;;;;;;5034929;28;20511;-70
2021/01/29 10:15:25;;;;;;;5.07;3.50;;;0.70;99.90;;;;;;5065494;28;20412;-71
2021/01/29 10:18:16;;;;;;;2.67;2.47;;;0.50;99.90;;;;;;5074231;28;20422;-71
2021/01/29 10:20:42;;;;;;;4.43;3.50;;;0.50;99.90;;;;;;5074338;28;20416;-70
2021/01/29 10:23:23;;;;;;;4.30;3.33;;;0.60;99.90;;;;;;5074493;28;20408;-70
2021/01/29 10:26:13;;;;;;;4.00;3.00;;;0.60;99.90;;;;;;5074225;28;20408;-70
2021/01/29 10:29:04;;;;;;;4.80;3.30;;;0.60;99.90;;;;;;5074327;28;20405;-70
2021/01/29 10:31:56;;;;;;;4.87;3.00;;;0.60;99.90;;;;;;5074113;28;20522;-70
2021/01/29 10:34:27;;;;;;;5.27;3.07;;;0.80;99.90;;;;;;5074304;28;20454;-72
2021/01/29 10:37:01;;;;;;;4.23;3.20;;;1.00;99.90;;;;;;5073999;28;20427;-70
2021/01/29 10:39:33;;;;;;;6.60;2.80;;;1.10;99.90;;;;;;5074060;28;20403;-69
2021/01/29 10:42:11;;;;;;;7.53;2.90;;;1.20;99.90;;;;;;5073918;28;20405;-69
2021/01/29 10:44:37;;;;;;;3.50;3.13;;;1.30;99.90;;;;;;5053842;28;20902;-70
2021/01/29 10:47:30;;;;;;;4.30;3.73;;;1.30;99.90;;;;;;5053875;28;20452;-69
2021/01/29 10:50:08;;;;;;;7.67;3.87;;;1.30;99.90;;;;;;5053599;28;20552;-70
2021/01/29 10:53:08;;;;;;;3.90;3.20;;;1.10;99.90;;;;;;5053976;28;20427;-70
2021/01/29 10:55:37;;;;;;;3.33;3.03;;;1.10;99.90;;;;;;5055559;28;20456;-70
2021/01/29 10:58:28;;;;;;;5.27;2.93;;;1.20;99.90;;;;;;5073405;28;20401;-70
2021/01/29 11:00:57;;;;;;;3.23;2.33;;;1.30;99.90;;;;;;5073780;28;20439;-70
2021/01/29 11:03:55;;;;;;;2.80;2.60;;;1.20;99.90;;;;;;5073780;28;20860;-70
2021/01/29 11:06:35;;;;;;;3.17;2.97;;;1.30;99.90;;;;;;5073314;28;20420;-70
2021/01/29 11:09:01;;;;;;;3.50;3.20;;;1.30;99.90;;;;;;5072838;28;20873;-70
2021/01/29 11:11:43;;;;;;;8.83;3.67;;;1.50;99.90;;;;;;5073379;28;20429;-70
2021/01/29 11:14:30;;;;;;;4.13;3.03;;;1.60;99.90;;;;;;5073456;28;20405;-70
2021/01/29 11:17:12;;;;;;;3.93;3.47;;;1.40;99.90;;;;;;5073444;28;20411;-70
2021/01/29 11:19:42;;;;;;;6.30;3.40;;;1.50;99.90;;;;;;5071946;28;20416;-70
2021/01/29 11:22:19;;;;;;;5.40;3.20;;;1.30;99.90;;;;;;5073109;28;20424;-71
2021/01/29 11:25:11;;;;;;;9.70;3.30;;;1.40;99.90;;;;;;5071927;28;20408;-70
2021/01/29 11:27:56;;;;;;;10.47;3.63;;;1.40;99.90;;;;;;5073171;28;20428;-70
2021/01/29 11:30:28;;;;;;;6.97;2.93;;;1.60;99.90;;;;;;5072818;28;20536;-70
2021/01/29 11:32:59;;;;;;;5.43;3.37;;;1.60;99.90;;;;;;5073154;28;20401;-70
2021/01/29 11:35:45;;;;;;;8.10;3.13;;;1.70;99.90;;;;;;5072879;28;20542;-70
2021/01/29 11:38:40;;;;;;;3.60;3.10;;;1.60;99.90;;;;;;5072937;28;20842;-71
2021/01/29 11:41:19;;;;;;;3.00;2.80;;;1.60;99.90;;;;;;5072903;28;20431;-70
2021/01/29 11:44:10;;;;;;;5.50;3.70;;;1.40;99.90;;;;;;5072795;28;20405;-70
2021/01/29 11:46:52;;;;;;;7.30;3.57;;;1.60;99.90;;;;;;5072505;28;20501;-70
2021/01/29 11:49:22;;;;;;;3.80;2.80;;;1.70;99.90;;;;;;5072642;28;20404;-70
2021/01/29 11:52:07;;;;;;;5.57;4.53;;;1.80;99.90;;;;;;5072675;28;20452;-70
2021/01/29 11:54:55;;;;;;;5.13;2.90;;;1.90;99.90;;;;;;5072424;28;20404;-70
2021/01/29 11:57:55;;;;;;;3.13;2.83;;;1.90;99.90;;;;;;5071245;28;20419;-70
2021/01/29 12:00:33;;;;;;;4.27;3.17;;;1.70;99.90;;;;;;5072316;28;20916;-70
2021/01/29 12:03:20;;;;;;;4.97;3.30;;;1.80;99.90;;;;;;5072656;28;20415;-70
2021/01/29 12:06:09;;;;;;;4.00;3.37;;;1.70;99.90;;;;;;5072256;28;20460;-70
2021/01/29 12:08:53;;;;;;;5.60;3.00;;;1.50;99.90;;;;;;5072211;28;20420;-70
2021/01/29 12:11:47;;;;;;;5.00;3.50;;;1.50;99.90;;;;;;5072265;28;20463;-70
2021/01/29 12:14:29;;;;;;;5.03;3.27;;;1.50;99.90;;;;;;5072164;28;20737;-70
2021/01/29 12:16:59;;;;;;;7.27;5.70;;;1.50;99.90;;;;;;5070757;28;20495;-70
2021/01/29 12:19:34;;;;;;;5.20;4.23;;;1.50;99.90;;;;;;5072027;28;20408;-70
2021/01/29 12:22:26;;;;;;;4.83;3.20;;;1.50;99.90;;;;;;5072393;28;20489;-70
2021/01/29 12:24:57;;;;;;;9.37;4.50;;;1.40;99.90;;;;;;5072738;28;20851;-70
2021/01/29 12:27:49;;;;;;;7.20;5.17;;;1.50;99.90;;;;;;5072241;28;20408;-70
2021/01/29 12:30:41;;;;;;;3.93;3.53;;;1.60;99.90;;;;;;5071883;28;20449;-71
2021/01/29 12:33:27;;;;;;;4.37;2.80;;;1.60;99.90;;;;;;5072097;28;20409;-71
2021/01/29 12:35:59;;;;;;;4.77;3.90;;;1.50;99.90;;;;;;5071325;28;20531;-70
2021/01/29 12:38:51;;;;;;;7.57;5.30;;;1.40;99.90;;;;;;5072011;28;20397;-70
2021/01/29 12:41:32;;;;;;;9.07;3.40;;;1.40;99.90;;;;;;5072095;28;20424;-71
2021/01/29 12:44:35;;;;;;;6.23;3.60;;;1.40;99.90;;;;;;5071736;28;21193;-70
2021/01/29 12:47:28;;;;;;;8.27;4.00;;;1.50;99.90;;;;;;5070537;28;20447;-70
2021/01/29 12:50:31;;;;;;;6.70;3.30;;;1.50;99.90;;;;;;5071700;28;20448;-70
2021/01/29 12:53:02;;;;;;;5.83;3.00;;;1.50;99.90;;;;;;5071703;28;20396;-70
2021/01/29 12:55:35;;;;;;;3.13;2.73;;;1.50;99.90;;;;;;5071799;28;20762;-70
2021/01/29 12:58:06;;;;;;;3.20;2.70;;;1.50;99.90;;;;;;5070988;28;20413;-70
2021/01/29 13:00:38;;;;;;;5.30;2.90;;;1.60;99.90;;;;;;5070679;28;20888;-70
2021/01/29 13:03:34;;;;;;;3.40;3.10;;;1.60;99.90;;;;;;5071772;28;20765;-71
2021/01/29 13:06:21;;;;;;;3.63;3.33;;;1.50;99.90;;;;;;5071557;28;20428;-70
2021/01/29 13:09:04;;;;;;;7.90;4.93;;;1.50;99.90;;;;;;5072092;28;20791;-70
2021/01/29 13:11:45;;;;;;;7.50;5.20;;;1.50;99.90;;;;;;5072030;28;20427;-70
2021/01/29 13:14:27;;;;;;;4.20;3.10;;;1.70;99.90;;;;;;5071708;28;20404;-70
2021/01/29 13:17:27;;;;;;;5.53;4.00;;;1.70;99.90;;;;;;5072053;28;20432;-70
2021/01/29 13:20:16;;;;;;;4.50;3.53;;;1.60;99.90;;;;;;5072776;28;20407;-70
2021/01/29 13:22:47;;;;;;;6.37;4.40;;;1.50;99.90;;;;;;5074072;28;20492;-70
2021/01/29 13:25:17;;;;;;;7.73;4.17;;;1.50;99.90;;;;;;5074890;28;20404;-71
2021/01/29 13:27:51;;;;;;;10.67;4.90;;;1.40;99.90;;;;;;5073170;28;20389;-71
2021/01/29 13:30:23;;;;;;;7.90;4.43;;;1.50;99.90;;;;;;5071441;28;20447;-71
2021/01/29 13:32:50;;;;;;;7.00;3.73;;;1.50;99.90;;;;;;5075467;28;20538;-71
2021/01/29 13:35:23;;;;;;;6.90;4.10;;;1.50;99.90;;;;;;5074959;28;20844;-72
2021/01/29 13:37:49;;;;;;;5.90;3.57;;;1.50;99.90;;;;;;5075131;28;20479;-75
2021/01/29 13:40:26;;;;;;;11.10;3.40;;;1.50;99.90;;;;;;5074907;28;20479;-69
2021/01/29 13:42:54;;;;;;;5.70;3.20;;;1.50;99.90;;;;;;5073869;28;20540;-69
2021/01/29 13:45:29;;;;;;;4.20;3.23;;;1.60;99.90;;;;;;5075087;28;20415;-70
2021/01/29 13:48:13;;;;;;;5.67;3.40;;;1.60;99.90;;;;;;5074827;28;20403;-71
2021/01/29 13:50:44;;;;;;;5.03;3.43;;;1.60;99.90;;;;;;5074742;28;20505;-71
2021/01/29 13:53:32;;;;;;;5.23;3.20;;;1.60;99.90;;;;;;5074806;28;20404;-71
2021/01/29 13:56:27;;;;;;;5.20;2.20;;;1.40;99.90;;;;;;5074722;28;20396;-70
2021/01/29 13:59:31;;;;;;;4.67;3.37;;;1.20;99.90;;;;;;5074874;28;20407;-70
2021/01/29 14:02:23;;;;;;;4.50;3.23;;;1.30;99.90;;;;;;5074486;28;20427;-70
2021/01/29 14:05:07;;;;;;;6.37;2.93;;;1.20;99.90;;;;;;5074725;28;20410;-70